CheckWX is a tool to help pilots better visualize weather data.  It is not intended as a substitute for an official pre-flight weather briefing.

00:18:16 UTC

DAUL TAF
Laghouat Airport
Laghouat, Algeria
TAF DAUL 012300Z 0200/0209 02015KT 8000 NSC

Apr-2@
00:00 UTC

Apr-2 @ 00:00 UTC

Apr-2@
09:00 UTC

Apr-2 @ 09:00 UTC

TAF DAUL 012300Z 0200/0209 02015KT 8000 NSC
Wind
  • 020° at 15 KTS
Cloud Levels
  • No significant clouds